sensor_id;sensor_type;location;lat;lon;timestamp;P1;durP1;ratioP1;P2;durP2;ratioP2
6527;SDS011;64597;42.664;23.256;2023-03-17T00:00:11;5.55;;;3.22;;
6527;SDS011;64597;42.664;23.256;2023-03-17T00:02:38;5.38;;;3.33;;
6527;SDS011;64597;42.664;23.256;2023-03-17T00:05:31;4.80;;;2.78;;
6527;SDS011;64597;42.664;23.256;2023-03-17T00:07:59;4.70;;;2.80;;
6527;SDS011;64597;42.664;23.256;2023-03-17T00:10:29;7.30;;;2.85;;
6527;SDS011;64597;42.664;23.256;2023-03-17T00:12:55;5.32;;;3.30;;
6527;SDS011;64597;42.664;23.256;2023-03-17T00:15:20;4.50;;;2.80;;
6527;SDS011;64597;42.664;23.256;2023-03-17T00:17:47;4.78;;;3.00;;
6527;SDS011;64597;42.664;23.256;2023-03-17T00:22:59;4.10;;;2.90;;
6527;SDS011;64597;42.664;23.256;2023-03-17T00:25:30;4.32;;;2.47;;
6527;SDS011;64597;42.664;23.256;2023-03-17T00:27:57;3.90;;;2.78;;
6527;SDS011;64597;42.664;23.256;2023-03-17T00:30:23;5.50;;;2.97;;
6527;SDS011;64597;42.664;23.256;2023-03-17T00:32:50;3.35;;;2.58;;
6527;SDS011;64597;42.664;23.256;2023-03-17T00:35:25;5.43;;;3.40;;
6527;SDS011;64597;42.664;23.256;2023-03-17T00:37:53;4.50;;;2.75;;
6527;SDS011;64597;42.664;23.256;2023-03-17T00:40:21;5.93;;;2.95;;
6527;SDS011;64597;42.664;23.256;2023-03-17T00:45:16;4.22;;;2.50;;
6527;SDS011;64597;42.664;23.256;2023-03-17T00:47:43;5.07;;;2.63;;
6527;SDS011;64597;42.664;23.256;2023-03-17T00:50:14;4.53;;;2.72;;
6527;SDS011;64597;42.664;23.256;2023-03-17T00:52:41;4.00;;;2.72;;
6527;SDS011;64597;42.664;23.256;2023-03-17T00:55:07;4.25;;;2.78;;
6527;SDS011;64597;42.664;23.256;2023-03-17T00:57:37;4.25;;;2.72;;
6527;SDS011;64597;42.664;23.256;2023-03-17T01:00:06;6.03;;;2.80;;
6527;SDS011;64597;42.664;23.256;2023-03-17T01:02:42;4.93;;;2.67;;
6527;SDS011;64597;42.664;23.256;2023-03-17T01:05:09;3.50;;;2.55;;
6527;SDS011;64597;42.664;23.256;2023-03-17T01:07:34;4.35;;;2.63;;
6527;SDS011;64597;42.664;23.256;2023-03-17T01:10:01;4.80;;;2.70;;
6527;SDS011;64597;42.664;23.256;2023-03-17T01:12:26;5.07;;;2.22;;
6527;SDS011;64597;42.664;23.256;2023-03-17T01:14:53;6.38;;;2.80;;
6527;SDS011;64597;42.664;23.256;2023-03-17T01:17:18;4.25;;;2.55;;
6527;SDS011;64597;42.664;23.256;2023-03-17T01:19:45;5.75;;;3.08;;
6527;SDS011;64597;42.664;23.256;2023-03-17T01:22:11;4.05;;;2.28;;
6527;SDS011;64597;42.664;23.256;2023-03-17T01:24:38;4.15;;;2.72;;
6527;SDS011;64597;42.664;23.256;2023-03-17T01:27:04;4.45;;;2.38;;
6527;SDS011;64597;42.664;23.256;2023-03-17T01:29:31;4.57;;;2.30;;
6527;SDS011;64597;42.664;23.256;2023-03-17T01:31:57;4.38;;;2.00;;
6527;SDS011;64597;42.664;23.256;2023-03-17T01:34:23;3.25;;;2.03;;
6527;SDS011;64597;42.664;23.256;2023-03-17T01:36:48;2.72;;;1.95;;
6527;SDS011;64597;42.664;23.256;2023-03-17T01:39:14;6.13;;;2.55;;
6527;SDS011;64597;42.664;23.256;2023-03-17T01:41:40;4.43;;;2.58;;
6527;SDS011;64597;42.664;23.256;2023-03-17T01:44:05;6.13;;;2.47;;
6527;SDS011;64597;42.664;23.256;2023-03-17T01:46:34;4.32;;;2.42;;
6527;SDS011;64597;42.664;23.256;2023-03-17T01:49:43;4.10;;;2.80;;
6527;SDS011;64597;42.664;23.256;2023-03-17T01:51:55;4.35;;;2.58;;
6527;SDS011;64597;42.664;23.256;2023-03-17T01:57:37;3.80;;;2.50;;
6527;SDS011;64597;42.664;23.256;2023-03-17T02:00:07;4.80;;;3.05;;
6527;SDS011;64597;42.664;23.256;2023-03-17T02:02:41;3.03;;;2.03;;
6527;SDS011;64597;42.664;23.256;2023-03-17T02:05:10;4.60;;;2.50;;
6527;SDS011;64597;42.664;23.256;2023-03-17T02:07:39;3.55;;;2.08;;
6527;SDS011;64597;42.664;23.256;2023-03-17T02:10:05;5.45;;;2.40;;
6527;SDS011;64597;42.664;23.256;2023-03-17T02:12:33;3.33;;;2.03;;
6527;SDS011;64597;42.664;23.256;2023-03-17T02:15:00;3.75;;;2.50;;
6527;SDS011;64597;42.664;23.256;2023-03-17T02:17:26;4.03;;;2.75;;
6527;SDS011;64597;42.664;23.256;2023-03-17T02:19:53;2.67;;;2.03;;
6527;SDS011;64597;42.664;23.256;2023-03-17T02:22:19;3.03;;;2.13;;
6527;SDS011;64597;42.664;23.256;2023-03-17T02:24:50;3.03;;;2.42;;
6527;SDS011;64597;42.664;23.256;2023-03-17T02:27:26;5.25;;;2.63;;
6527;SDS011;64597;42.664;23.256;2023-03-17T02:29:57;4.82;;;2.78;;
6527;SDS011;64597;42.664;23.256;2023-03-17T02:32:23;8.38;;;2.67;;
6527;SDS011;64597;42.664;23.256;2023-03-17T02:34:49;5.00;;;2.33;;
6527;SDS011;64597;42.664;23.256;2023-03-17T02:37:15;3.63;;;2.03;;
6527;SDS011;64597;42.664;23.256;2023-03-17T02:39:42;6.18;;;2.63;;
6527;SDS011;64597;42.664;23.256;2023-03-17T02:42:08;3.85;;;2.65;;
6527;SDS011;64597;42.664;23.256;2023-03-17T02:44:34;4.22;;;2.67;;
6527;SDS011;64597;42.664;23.256;2023-03-17T02:47:00;4.20;;;2.65;;
6527;SDS011;64597;42.664;23.256;2023-03-17T02:49:27;4.80;;;2.53;;
6527;SDS011;64597;42.664;23.256;2023-03-17T02:51:54;4.57;;;2.25;;
6527;SDS011;64597;42.664;23.256;2023-03-17T02:54:20;3.72;;;2.30;;
6527;SDS011;64597;42.664;23.256;2023-03-17T02:56:45;3.88;;;2.85;;
6527;SDS011;64597;42.664;23.256;2023-03-17T02:59:10;4.13;;;2.55;;
6527;SDS011;64597;42.664;23.256;2023-03-17T03:01:36;3.92;;;2.28;;
6527;SDS011;64597;42.664;23.256;2023-03-17T03:04:03;4.13;;;2.25;;
6527;SDS011;64597;42.664;23.256;2023-03-17T03:06:29;5.20;;;2.63;;
6527;SDS011;64597;42.664;23.256;2023-03-17T03:08:55;3.78;;;2.40;;
6527;SDS011;64597;42.664;23.256;2023-03-17T03:11:21;4.20;;;2.78;;
6527;SDS011;64597;42.664;23.256;2023-03-17T03:13:47;4.43;;;2.83;;
6527;SDS011;64597;42.664;23.256;2023-03-17T03:16:12;4.25;;;2.67;;
6527;SDS011;64597;42.664;23.256;2023-03-17T03:18:40;4.78;;;2.40;;
6527;SDS011;64597;42.664;23.256;2023-03-17T03:21:05;5.18;;;2.88;;
6527;SDS011;64597;42.664;23.256;2023-03-17T03:23:31;5.60;;;2.78;;
6527;SDS011;64597;42.664;23.256;2023-03-17T03:25:57;4.65;;;2.65;;
6527;SDS011;64597;42.664;23.256;2023-03-17T03:28:22;5.22;;;2.60;;
6527;SDS011;64597;42.664;23.256;2023-03-17T03:30:48;4.15;;;2.30;;
6527;SDS011;64597;42.664;23.256;2023-03-17T03:33:14;4.88;;;2.45;;
6527;SDS011;64597;42.664;23.256;2023-03-17T03:35:40;4.45;;;2.75;;
6527;SDS011;64597;42.664;23.256;2023-03-17T03:38:07;4.03;;;2.22;;
6527;SDS011;64597;42.664;23.256;2023-03-17T03:40:33;3.90;;;2.55;;
6527;SDS011;64597;42.664;23.256;2023-03-17T03:43:00;3.88;;;2.47;;
6527;SDS011;64597;42.664;23.256;2023-03-17T03:45:26;5.30;;;3.22;;
6527;SDS011;64597;42.664;23.256;2023-03-17T03:47:51;6.82;;;3.05;;
6527;SDS011;64597;42.664;23.256;2023-03-17T03:50:17;4.95;;;2.80;;
6527;SDS011;64597;42.664;23.256;2023-03-17T03:52:42;5.45;;;3.00;;
6527;SDS011;64597;42.664;23.256;2023-03-17T03:55:08;4.45;;;2.70;;
6527;SDS011;64597;42.664;23.256;2023-03-17T03:57:34;7.25;;;3.17;;
6527;SDS011;64597;42.664;23.256;2023-03-17T04:00:00;6.78;;;3.50;;
6527;SDS011;64597;42.664;23.256;2023-03-17T04:02:26;7.43;;;3.55;;
6527;SDS011;64597;42.664;23.256;2023-03-17T04:04:52;4.30;;;2.88;;
6527;SDS011;64597;42.664;23.256;2023-03-17T04:07:18;7.57;;;3.28;;
6527;SDS011;64597;42.664;23.256;2023-03-17T04:09:45;6.90;;;3.72;;
6527;SDS011;64597;42.664;23.256;2023-03-17T04:12:11;7.90;;;4.07;;
6527;SDS011;64597;42.664;23.256;2023-03-17T04:14:37;5.68;;;3.42;;
6527;SDS011;64597;42.664;23.256;2023-03-17T04:17:02;5.07;;;3.15;;
6527;SDS011;64597;42.664;23.256;2023-03-17T04:19:29;5.03;;;3.15;;
6527;SDS011;64597;42.664;23.256;2023-03-17T04:21:54;4.97;;;3.13;;
6527;SDS011;64597;42.664;23.256;2023-03-17T04:24:20;3.90;;;2.90;;
6527;SDS011;64597;42.664;23.256;2023-03-17T04:26:45;6.13;;;3.22;;
6527;SDS011;64597;42.664;23.256;2023-03-17T04:29:11;4.50;;;2.80;;
6527;SDS011;64597;42.664;23.256;2023-03-17T04:31:39;5.72;;;3.17;;
6527;SDS011;64597;42.664;23.256;2023-03-17T04:34:05;7.13;;;3.45;;
6527;SDS011;64597;42.664;23.256;2023-03-17T04:36:31;7.10;;;3.38;;
6527;SDS011;64597;42.664;23.256;2023-03-17T04:38:57;5.63;;;2.67;;
6527;SDS011;64597;42.664;23.256;2023-03-17T04:41:22;5.93;;;3.22;;
6527;SDS011;64597;42.664;23.256;2023-03-17T04:43:48;5.78;;;3.40;;
6527;SDS011;64597;42.664;23.256;2023-03-17T04:46:13;6.82;;;4.28;;
6527;SDS011;64597;42.664;23.256;2023-03-17T04:48:39;5.88;;;3.38;;
6527;SDS011;64597;42.664;23.256;2023-03-17T04:51:05;4.15;;;2.60;;
6527;SDS011;64597;42.664;23.256;2023-03-17T04:53:30;5.15;;;2.90;;
6527;SDS011;64597;42.664;23.256;2023-03-17T04:55:56;5.05;;;3.13;;
6527;SDS011;64597;42.664;23.256;2023-03-17T04:58:22;5.78;;;3.10;;
6527;SDS011;64597;42.664;23.256;2023-03-17T05:00:48;5.85;;;2.95;;
6527;SDS011;64597;42.664;23.256;2023-03-17T05:03:14;5.65;;;3.08;;
6527;SDS011;64597;42.664;23.256;2023-03-17T05:05:40;6.13;;;3.13;;
6527;SDS011;64597;42.664;23.256;2023-03-17T05:08:05;3.80;;;2.65;;
6527;SDS011;64597;42.664;23.256;2023-03-17T05:10:31;7.80;;;3.28;;
6527;SDS011;64597;42.664;23.256;2023-03-17T05:12:56;4.72;;;3.05;;
6527;SDS011;64597;42.664;23.256;2023-03-17T05:15:21;6.50;;;3.38;;
6527;SDS011;64597;42.664;23.256;2023-03-17T05:17:47;7.05;;;3.83;;
6527;SDS011;64597;42.664;23.256;2023-03-17T05:20:12;5.47;;;3.42;;
6527;SDS011;64597;42.664;23.256;2023-03-17T05:22:39;5.22;;;3.70;;
6527;SDS011;64597;42.664;23.256;2023-03-17T05:25:05;5.88;;;3.42;;
6527;SDS011;64597;42.664;23.256;2023-03-17T05:27:31;6.43;;;3.85;;
6527;SDS011;64597;42.664;23.256;2023-03-17T05:29:57;5.85;;;3.97;;
6527;SDS011;64597;42.664;23.256;2023-03-17T05:32:23;6.30;;;3.03;;
6527;SDS011;64597;42.664;23.256;2023-03-17T05:34:48;6.97;;;3.47;;
6527;SDS011;64597;42.664;23.256;2023-03-17T05:37:14;7.47;;;3.53;;
6527;SDS011;64597;42.664;23.256;2023-03-17T05:39:40;5.30;;;3.03;;
6527;SDS011;64597;42.664;23.256;2023-03-17T05:42:06;5.90;;;3.47;;
6527;SDS011;64597;42.664;23.256;2023-03-17T05:44:32;4.78;;;3.05;;
6527;SDS011;64597;42.664;23.256;2023-03-17T05:46:58;6.40;;;2.97;;
6527;SDS011;64597;42.664;23.256;2023-03-17T05:49:25;5.13;;;2.92;;
6527;SDS011;64597;42.664;23.256;2023-03-17T05:51:52;8.07;;;3.08;;
6527;SDS011;64597;42.664;23.256;2023-03-17T05:54:18;5.88;;;3.47;;
6527;SDS011;64597;42.664;23.256;2023-03-17T05:56:44;6.20;;;3.13;;
6527;SDS011;64597;42.664;23.256;2023-03-17T05:59:10;5.05;;;3.33;;
6527;SDS011;64597;42.664;23.256;2023-03-17T06:01:38;4.47;;;3.22;;
6527;SDS011;64597;42.664;23.256;2023-03-17T06:04:04;4.53;;;2.92;;
6527;SDS011;64597;42.664;23.256;2023-03-17T06:06:30;3.35;;;2.60;;
6527;SDS011;64597;42.664;23.256;2023-03-17T06:08:56;5.13;;;3.45;;
6527;SDS011;64597;42.664;23.256;2023-03-17T06:11:21;4.38;;;2.92;;
6527;SDS011;64597;42.664;23.256;2023-03-17T06:13:47;5.35;;;3.30;;
6527;SDS011;64597;42.664;23.256;2023-03-17T06:16:13;4.85;;;3.28;;
6527;SDS011;64597;42.664;23.256;2023-03-17T06:18:39;7.72;;;3.58;;
6527;SDS011;64597;42.664;23.256;2023-03-17T06:21:04;6.22;;;3.40;;
6527;SDS011;64597;42.664;23.256;2023-03-17T06:23:30;5.07;;;3.33;;
6527;SDS011;64597;42.664;23.256;2023-03-17T06:25:55;7.45;;;4.15;;
6527;SDS011;64597;42.664;23.256;2023-03-17T06:28:21;7.03;;;4.47;;
6527;SDS011;64597;42.664;23.256;2023-03-17T06:30:47;8.90;;;4.30;;
6527;SDS011;64597;42.664;23.256;2023-03-17T06:33:12;3.63;;;2.75;;
6527;SDS011;64597;42.664;23.256;2023-03-17T06:35:38;5.68;;;3.35;;
6527;SDS011;64597;42.664;23.256;2023-03-17T06:38:04;4.80;;;2.90;;
6527;SDS011;64597;42.664;23.256;2023-03-17T06:40:30;4.57;;;3.35;;
6527;SDS011;64597;42.664;23.256;2023-03-17T06:42:58;5.43;;;3.22;;
6527;SDS011;64597;42.664;23.256;2023-03-17T06:45:24;6.00;;;4.53;;
6527;SDS011;64597;42.664;23.256;2023-03-17T06:47:49;5.63;;;3.40;;
6527;SDS011;64597;42.664;23.256;2023-03-17T06:50:15;7.57;;;3.20;;
6527;SDS011;64597;42.664;23.256;2023-03-17T06:52:41;5.78;;;3.92;;
6527;SDS011;64597;42.664;23.256;2023-03-17T06:55:06;6.20;;;3.20;;
6527;SDS011;64597;42.664;23.256;2023-03-17T06:57:33;5.57;;;3.20;;
6527;SDS011;64597;42.664;23.256;2023-03-17T07:00:00;4.15;;;2.75;;
6527;SDS011;64597;42.664;23.256;2023-03-17T07:02:26;6.03;;;3.47;;
6527;SDS011;64597;42.664;23.256;2023-03-17T07:04:52;6.13;;;3.55;;
6527;SDS011;64597;42.664;23.256;2023-03-17T07:07:18;6.95;;;3.50;;
6527;SDS011;64597;42.664;23.256;2023-03-17T07:09:45;5.22;;;3.50;;
6527;SDS011;64597;42.664;23.256;2023-03-17T07:12:11;5.30;;;3.63;;
6527;SDS011;64597;42.664;23.256;2023-03-17T07:14:38;6.95;;;4.03;;
6527;SDS011;64597;42.664;23.256;2023-03-17T07:17:04;6.20;;;3.85;;
6527;SDS011;64597;42.664;23.256;2023-03-17T07:19:30;4.20;;;2.72;;
6527;SDS011;64597;42.664;23.256;2023-03-17T07:21:57;5.47;;;3.75;;
6527;SDS011;64597;42.664;23.256;2023-03-17T07:24:23;5.75;;;3.30;;
6527;SDS011;64597;42.664;23.256;2023-03-17T07:26:49;4.53;;;3.20;;
6527;SDS011;64597;42.664;23.256;2023-03-17T07:29:15;5.45;;;3.10;;
6527;SDS011;64597;42.664;23.256;2023-03-17T07:31:41;4.63;;;2.92;;
6527;SDS011;64597;42.664;23.256;2023-03-17T07:34:08;4.70;;;2.97;;
6527;SDS011;64597;42.664;23.256;2023-03-17T07:36:34;4.95;;;2.78;;
6527;SDS011;64597;42.664;23.256;2023-03-17T07:39:00;6.15;;;3.22;;
6527;SDS011;64597;42.664;23.256;2023-03-17T07:41:26;4.55;;;2.95;;
6527;SDS011;64597;42.664;23.256;2023-03-17T07:43:52;4.88;;;2.92;;
6527;SDS011;64597;42.664;23.256;2023-03-17T07:46:18;3.30;;;2.70;;
6527;SDS011;64597;42.664;23.256;2023-03-17T07:48:44;5.63;;;3.10;;
6527;SDS011;64597;42.664;23.256;2023-03-17T07:51:19;3.78;;;2.63;;
6527;SDS011;64597;42.664;23.256;2023-03-17T07:53:46;5.07;;;2.65;;
6527;SDS011;64597;42.664;23.256;2023-03-17T07:56:14;3.60;;;2.78;;
6527;SDS011;64597;42.664;23.256;2023-03-17T07:58:40;3.47;;;2.22;;
6527;SDS011;64597;42.664;23.256;2023-03-17T08:01:06;4.03;;;2.33;;
6527;SDS011;64597;42.664;23.256;2023-03-17T08:03:32;4.63;;;2.30;;
6527;SDS011;64597;42.664;23.256;2023-03-17T08:05:58;4.72;;;2.83;;
6527;SDS011;64597;42.664;23.256;2023-03-17T08:08:25;4.75;;;2.50;;
6527;SDS011;64597;42.664;23.256;2023-03-17T08:10:56;5.60;;;2.35;;
6527;SDS011;64597;42.664;23.256;2023-03-17T08:13:25;6.03;;;2.97;;
6527;SDS011;64597;42.664;23.256;2023-03-17T08:15:51;4.40;;;2.42;;
6527;SDS011;64597;42.664;23.256;2023-03-17T08:18:17;3.47;;;1.90;;
6527;SDS011;64597;42.664;23.256;2023-03-17T08:20:42;4.28;;;2.50;;
6527;SDS011;64597;42.664;23.256;2023-03-17T08:23:08;3.15;;;2.10;;
6527;SDS011;64597;42.664;23.256;2023-03-17T08:25:34;3.22;;;2.08;;
6527;SDS011;64597;42.664;23.256;2023-03-17T08:27:59;2.58;;;1.60;;
6527;SDS011;64597;42.664;23.256;2023-03-17T08:30:25;3.90;;;2.10;;
6527;SDS011;64597;42.664;23.256;2023-03-17T08:32:51;4.45;;;2.47;;
6527;SDS011;64597;42.664;23.256;2023-03-17T08:35:18;3.65;;;2.22;;
6527;SDS011;64597;42.664;23.256;2023-03-17T08:37:47;3.85;;;2.30;;
6527;SDS011;64597;42.664;23.256;2023-03-17T08:40:13;5.20;;;2.78;;
6527;SDS011;64597;42.664;23.256;2023-03-17T08:42:44;5.65;;;3.20;;
6527;SDS011;64597;42.664;23.256;2023-03-17T08:45:11;4.78;;;2.80;;
6527;SDS011;64597;42.664;23.256;2023-03-17T08:47:37;3.85;;;2.60;;
6527;SDS011;64597;42.664;23.256;2023-03-17T08:50:04;5.22;;;2.50;;
6527;SDS011;64597;42.664;23.256;2023-03-17T08:52:33;4.38;;;2.67;;
6527;SDS011;64597;42.664;23.256;2023-03-17T08:54:59;3.83;;;2.72;;
6527;SDS011;64597;42.664;23.256;2023-03-17T08:57:25;6.53;;;3.38;;
6527;SDS011;64597;42.664;23.256;2023-03-17T08:59:52;6.82;;;3.13;;
6527;SDS011;64597;42.664;23.256;2023-03-17T09:02:17;6.75;;;4.30;;
6527;SDS011;64597;42.664;23.256;2023-03-17T09:04:43;5.35;;;3.40;;
6527;SDS011;64597;42.664;23.256;2023-03-17T09:07:08;11.35;;;5.80;;
6527;SDS011;64597;42.664;23.256;2023-03-17T09:09:34;6.93;;;3.72;;
6527;SDS011;64597;42.664;23.256;2023-03-17T09:12:01;5.45;;;2.88;;
6527;SDS011;64597;42.664;23.256;2023-03-17T09:14:29;5.60;;;2.67;;
6527;SDS011;64597;42.664;23.256;2023-03-17T09:16:55;12.10;;;3.22;;
6527;SDS011;64597;42.664;23.256;2023-03-17T09:19:20;6.25;;;3.15;;
6527;SDS011;64597;42.664;23.256;2023-03-17T09:21:47;4.70;;;2.58;;
6527;SDS011;64597;42.664;23.256;2023-03-17T09:24:14;8.77;;;3.00;;
6527;SDS011;64597;42.664;23.256;2023-03-17T09:26:39;6.03;;;3.63;;
6527;SDS011;64597;42.664;23.256;2023-03-17T09:29:05;6.40;;;3.78;;
6527;SDS011;64597;42.664;23.256;2023-03-17T09:31:31;9.77;;;5.03;;
6527;SDS011;64597;42.664;23.256;2023-03-17T09:33:57;8.93;;;4.75;;
6527;SDS011;64597;42.664;23.256;2023-03-17T09:36:23;7.75;;;4.97;;
6527;SDS011;64597;42.664;23.256;2023-03-17T09:38:50;8.00;;;4.97;;
6527;SDS011;64597;42.664;23.256;2023-03-17T09:49:21;8.88;;;3.83;;
6527;SDS011;64597;42.664;23.256;2023-03-17T09:52:12;4.80;;;3.22;;
6527;SDS011;64597;42.664;23.256;2023-03-17T09:54:40;6.15;;;3.35;;
6527;SDS011;64597;42.664;23.256;2023-03-17T09:57:18;6.38;;;3.50;;
6527;SDS011;64597;42.664;23.256;2023-03-17T10:00:11;8.25;;;3.63;;
6527;SDS011;64597;42.664;23.256;2023-03-17T10:02:39;8.40;;;3.45;;
6527;SDS011;64597;42.664;23.256;2023-03-17T10:13:24;7.40;;;4.07;;
6527;SDS011;64597;42.664;23.256;2023-03-17T10:16:02;9.40;;;4.93;;
6527;SDS011;64597;42.664;23.256;2023-03-17T10:18:44;7.05;;;4.45;;
6527;SDS011;64597;42.664;23.256;2023-03-17T10:21:17;13.88;;;4.22;;
6527;SDS011;64597;42.664;23.256;2023-03-17T10:23:46;7.68;;;4.43;;
6527;SDS011;64597;42.664;23.256;2023-03-17T10:26:36;6.72;;;4.55;;
6527;SDS011;64597;42.664;23.256;2023-03-17T10:29:13;7.22;;;4.25;;
6527;SDS011;64597;42.664;23.256;2023-03-17T10:31:41;6.90;;;4.20;;
6527;SDS011;64597;42.664;23.256;2023-03-17T10:34:11;8.20;;;4.32;;
6527;SDS011;64597;42.664;23.256;2023-03-17T10:36:39;5.40;;;3.25;;
6527;SDS011;64597;42.664;23.256;2023-03-17T10:39:09;7.80;;;3.58;;
6527;SDS011;64597;42.664;23.256;2023-03-17T10:41:38;8.30;;;4.10;;
6527;SDS011;64597;42.664;23.256;2023-03-17T10:44:09;8.57;;;3.92;;
6527;SDS011;64597;42.664;23.256;2023-03-17T10:50:02;7.60;;;4.05;;
6527;SDS011;64597;42.664;23.256;2023-03-17T10:52:40;6.80;;;3.75;;
6527;SDS011;64597;42.664;23.256;2023-03-17T10:55:07;6.38;;;3.50;;
6527;SDS011;64597;42.664;23.256;2023-03-17T10:57:37;10.52;;;4.32;;
6527;SDS011;64597;42.664;23.256;2023-03-17T11:00:13;5.95;;;3.55;;
6527;SDS011;64597;42.664;23.256;2023-03-17T11:02:50;5.45;;;3.25;;
6527;SDS011;64597;42.664;23.256;2023-03-17T11:05:24;6.05;;;3.30;;
6527;SDS011;64597;42.664;23.256;2023-03-17T11:08:05;6.72;;;3.58;;
6527;SDS011;64597;42.664;23.256;2023-03-17T11:10:36;6.90;;;4.07;;
6527;SDS011;64597;42.664;23.256;2023-03-17T11:13:03;7.63;;;3.65;;
6527;SDS011;64597;42.664;23.256;2023-03-17T11:18:39;7.53;;;4.88;;
6527;SDS011;64597;42.664;23.256;2023-03-17T11:21:14;7.00;;;4.28;;
6527;SDS011;64597;42.664;23.256;2023-03-17T11:29:25;7.78;;;4.55;;
6527;SDS011;64597;42.664;23.256;2023-03-17T11:39:57;7.00;;;3.28;;
6527;SDS011;64597;42.664;23.256;2023-03-17T11:42:35;7.95;;;3.10;;
6527;SDS011;64597;42.664;23.256;2023-03-17T11:45:22;6.93;;;3.25;;
6527;SDS011;64597;42.664;23.256;2023-03-17T11:48:08;6.00;;;3.83;;
6527;SDS011;64597;42.664;23.256;2023-03-17T11:56:19;6.15;;;3.05;;
6527;SDS011;64597;42.664;23.256;2023-03-17T11:58:52;8.02;;;3.17;;
6527;SDS011;64597;42.664;23.256;2023-03-17T12:01:38;6.75;;;3.80;;
6527;SDS011;64597;42.664;23.256;2023-03-17T12:04:32;4.50;;;3.08;;
6527;SDS011;64597;42.664;23.256;2023-03-17T12:07:45;5.80;;;3.53;;
6527;SDS011;64597;42.664;23.256;2023-03-17T12:13:15;6.35;;;3.65;;
6527;SDS011;64597;42.664;23.256;2023-03-17T12:15:41;5.43;;;3.15;;
6527;SDS011;64597;42.664;23.256;2023-03-17T12:18:27;7.70;;;2.83;;
6527;SDS011;64597;42.664;23.256;2023-03-17T12:24:09;4.93;;;2.72;;
6527;SDS011;64597;42.664;23.256;2023-03-17T12:29:36;4.88;;;2.42;;
6527;SDS011;64597;42.664;23.256;2023-03-17T12:32:05;5.43;;;2.13;;
6527;SDS011;64597;42.664;23.256;2023-03-17T12:34:42;5.18;;;2.58;;
6527;SDS011;64597;42.664;23.256;2023-03-17T12:37:14;3.00;;;1.92;;
6527;SDS011;64597;42.664;23.256;2023-03-17T12:39:41;2.88;;;2.28;;
6527;SDS011;64597;42.664;23.256;2023-03-17T12:47:51;3.45;;;1.98;;
6527;SDS011;64597;42.664;23.256;2023-03-17T12:50:35;5.30;;;2.60;;
6527;SDS011;64597;42.664;23.256;2023-03-17T12:53:48;7.68;;;3.92;;
6527;SDS011;64597;42.664;23.256;2023-03-17T12:59:04;6.28;;;2.60;;
6527;SDS011;64597;42.664;23.256;2023-03-17T13:01:39;5.70;;;2.80;;
6527;SDS011;64597;42.664;23.256;2023-03-17T13:06:41;2.97;;;2.67;;
6527;SDS011;64597;42.664;23.256;2023-03-17T13:09:26;3.13;;;2.03;;
6527;SDS011;64597;42.664;23.256;2023-03-17T13:11:55;4.68;;;2.50;;
6527;SDS011;64597;42.664;23.256;2023-03-17T13:27:40;3.42;;;1.70;;
6527;SDS011;64597;42.664;23.256;2023-03-17T13:33:33;2.20;;;1.30;;
6527;SDS011;64597;42.664;23.256;2023-03-17T13:39:16;4.63;;;1.35;;
6527;SDS011;64597;42.664;23.256;2023-03-17T13:41:17;1.50;;;0.90;;
6527;SDS011;64597;42.664;23.256;2023-03-17T13:49:50;2.42;;;1.35;;
6527;SDS011;64597;42.664;23.256;2023-03-17T13:52:29;1.90;;;1.27;;
6527;SDS011;64597;42.664;23.256;2023-03-17T13:55:00;1.45;;;1.15;;
6527;SDS011;64597;42.664;23.256;2023-03-17T13:57:37;1.85;;;1.35;;
6527;SDS011;64597;42.664;23.256;2023-03-17T14:02:40;2.38;;;1.00;;
6527;SDS011;64597;42.664;23.256;2023-03-17T14:05:22;2.70;;;1.40;;
6527;SDS011;64597;42.664;23.256;2023-03-17T14:07:55;2.50;;;1.42;;
6527;SDS011;64597;42.664;23.256;2023-03-17T14:10:23;1.52;;;1.10;;
6527;SDS011;64597;42.664;23.256;2023-03-17T14:15:36;2.17;;;1.40;;
6527;SDS011;64597;42.664;23.256;2023-03-17T14:18:16;1.77;;;1.38;;
6527;SDS011;64597;42.664;23.256;2023-03-17T14:20:52;3.35;;;1.40;;
6527;SDS011;64597;42.664;23.256;2023-03-17T14:23:21;2.53;;;1.80;;
6527;SDS011;64597;42.664;23.256;2023-03-17T14:25:48;2.95;;;1.60;;
6527;SDS011;64597;42.664;23.256;2023-03-17T14:28:15;3.72;;;1.80;;
6527;SDS011;64597;42.664;23.256;2023-03-17T14:30:50;4.00;;;1.98;;
6527;SDS011;64597;42.664;23.256;2023-03-17T14:33:22;3.17;;;1.63;;
6527;SDS011;64597;42.664;23.256;2023-03-17T14:35:51;4.97;;;1.80;;
6527;SDS011;64597;42.664;23.256;2023-03-17T14:38:19;4.00;;;2.20;;
6527;SDS011;64597;42.664;23.256;2023-03-17T14:43:31;2.53;;;1.60;;
6527;SDS011;64597;42.664;23.256;2023-03-17T14:46:04;2.42;;;1.67;;
6527;SDS011;64597;42.664;23.256;2023-03-17T14:48:37;2.28;;;1.60;;
6527;SDS011;64597;42.664;23.256;2023-03-17T14:51:08;2.75;;;1.52;;
6527;SDS011;64597;42.664;23.256;2023-03-17T14:53:47;2.63;;;1.50;;
6527;SDS011;64597;42.664;23.256;2023-03-17T14:56:18;2.00;;;1.65;;
6527;SDS011;64597;42.664;23.256;2023-03-17T14:58:47;4.75;;;1.50;;
6527;SDS011;64597;42.664;23.256;2023-03-17T15:03:57;2.92;;;1.83;;
6527;SDS011;64597;42.664;23.256;2023-03-17T15:06:29;3.22;;;1.77;;
6527;SDS011;64597;42.664;23.256;2023-03-17T15:08:57;3.83;;;2.00;;
6527;SDS011;64597;42.664;23.256;2023-03-17T15:11:43;4.50;;;2.60;;
6527;SDS011;64597;42.664;23.256;2023-03-17T15:16:59;3.70;;;2.28;;
6527;SDS011;64597;42.664;23.256;2023-03-17T15:21:54;3.63;;;1.67;;
6527;SDS011;64597;42.664;23.256;2023-03-17T15:24:25;3.75;;;1.90;;
6527;SDS011;64597;42.664;23.256;2023-03-17T15:27:00;2.70;;;1.65;;
6527;SDS011;64597;42.664;23.256;2023-03-17T15:29:30;3.05;;;1.77;;
6527;SDS011;64597;42.664;23.256;2023-03-17T15:32:00;3.92;;;1.98;;
6527;SDS011;64597;42.664;23.256;2023-03-17T15:34:30;4.10;;;2.13;;
6527;SDS011;64597;42.664;23.256;2023-03-17T15:36:56;4.07;;;2.38;;
6527;SDS011;64597;42.664;23.256;2023-03-17T15:39:21;4.85;;;2.53;;
6527;SDS011;64597;42.664;23.256;2023-03-17T15:41:47;5.47;;;2.58;;
6527;SDS011;64597;42.664;23.256;2023-03-17T15:44:12;7.00;;;2.70;;
6527;SDS011;64597;42.664;23.256;2023-03-17T15:46:38;4.07;;;2.05;;
6527;SDS011;64597;42.664;23.256;2023-03-17T15:49:07;2.60;;;1.80;;
6527;SDS011;64597;42.664;23.256;2023-03-17T15:51:34;3.03;;;1.90;;
6527;SDS011;64597;42.664;23.256;2023-03-17T15:54:00;3.35;;;2.28;;
6527;SDS011;64597;42.664;23.256;2023-03-17T15:56:25;3.40;;;2.00;;
6527;SDS011;64597;42.664;23.256;2023-03-17T15:58:50;4.25;;;2.50;;
6527;SDS011;64597;42.664;23.256;2023-03-17T16:01:16;4.50;;;2.45;;
6527;SDS011;64597;42.664;23.256;2023-03-17T16:03:42;4.18;;;2.10;;
6527;SDS011;64597;42.664;23.256;2023-03-17T16:06:13;5.50;;;2.63;;
6527;SDS011;64597;42.664;23.256;2023-03-17T16:08:43;3.60;;;2.03;;
6527;SDS011;64597;42.664;23.256;2023-03-17T16:11:21;5.35;;;2.40;;
6527;SDS011;64597;42.664;23.256;2023-03-17T16:13:55;4.10;;;2.50;;
6527;SDS011;64597;42.664;23.256;2023-03-17T16:16:28;3.70;;;2.10;;
6527;SDS011;64597;42.664;23.256;2023-03-17T16:18:55;6.22;;;2.63;;
6527;SDS011;64597;42.664;23.256;2023-03-17T16:21:22;6.20;;;2.85;;
6527;SDS011;64597;42.664;23.256;2023-03-17T16:23:47;4.35;;;2.20;;
6527;SDS011;64597;42.664;23.256;2023-03-17T16:26:13;4.07;;;2.50;;
6527;SDS011;64597;42.664;23.256;2023-03-17T16:28:39;5.00;;;2.47;;
6527;SDS011;64597;42.664;23.256;2023-03-17T16:31:13;3.97;;;2.40;;
6527;SDS011;64597;42.664;23.256;2023-03-17T16:33:52;3.80;;;2.28;;
6527;SDS011;64597;42.664;23.256;2023-03-17T16:36:19;4.50;;;2.40;;
6527;SDS011;64597;42.664;23.256;2023-03-17T16:38:45;6.78;;;3.15;;
6527;SDS011;64597;42.664;23.256;2023-03-17T16:41:24;7.47;;;3.47;;
6527;SDS011;64597;42.664;23.256;2023-03-17T16:44:00;7.75;;;3.67;;
6527;SDS011;64597;42.664;23.256;2023-03-17T16:46:27;4.97;;;3.08;;
6527;SDS011;64597;42.664;23.256;2023-03-17T16:48:56;4.53;;;3.30;;